Time;durP1;ratioP1;P1;durP2;ratioP2;P2;SDS_P1;SDS_P2;PMS_P1;PMS_P2;Temp;Humidity;BMP_temperature;BMP_pressure;BME280_temperature;BME280_humidity;BME280_pressure;Samples;Min_cycle;Max_cycle;Signal;HPM_P1;HPM_P2
2022/04/24 00:00:02;;;;;;;15.18;5.03;;;;;;;15.60;57.36;99123.81;3146909;28;20575;-73
2022/04/24 00:01:34;;;;;;;18.13;6.00;;;;;;;15.79;57.90;99162.63;3146794;28;20052;-73
2022/04/24 00:03:06;;;;;;;16.80;6.18;;;;;;;15.74;57.84;99162.19;3146638;28;20044;-73
2022/04/24 00:04:37;;;;;;;18.08;4.95;;;;;;;15.73;58.19;99163.94;3141834;28;20063;-73
2022/04/24 00:06:11;;;;;;;19.83;6.68;;;;;;;15.71;58.07;99157.16;3146573;28;20536;-73
2022/04/24 00:07:43;;;;;;;23.77;7.82;;;;;;;15.69;58.41;99165.16;3145563;28;20441;-73
2022/04/24 00:09:15;;;;;;;19.83;6.30;;;;;;;15.66;58.31;99160.09;3146611;28;20048;-73
2022/04/24 00:10:47;;;;;;;17.27;5.95;;;;;;;15.63;58.75;99161.16;3146642;28;20135;-73
2022/04/24 00:12:19;;;;;;;15.77;6.85;;;;;;;15.61;58.59;99168.31;3146220;28;20526;-73
2022/04/24 00:13:51;;;;;;;25.90;7.93;;;;;;;15.60;58.85;99163.19;3146890;28;20509;-73
2022/04/24 00:15:22;;;;;;;22.95;7.18;;;;;;;15.61;58.59;99163.06;3145736;28;20052;-72
2022/04/24 00:16:54;;;;;;;18.13;6.30;;;;;;;15.60;58.92;99164.03;3146604;28;20048;-73
2022/04/24 00:18:27;;;;;;;17.75;6.28;;;;;;;15.60;58.93;99163.19;3146305;28;20060;-73
2022/04/24 00:19:59;;;;;;;18.23;6.93;;;;;;;15.59;59.07;99159.75;3145861;28;20056;-73
2022/04/24 00:21:31;;;;;;;25.80;7.57;;;;;;;15.58;58.88;99157.22;3146642;28;20053;-73
2022/04/24 00:23:03;;;;;;;20.35;6.68;;;;;;;15.56;59.17;99159.97;3146729;28;20500;-73
2022/04/24 00:24:36;;;;;;;17.30;5.53;;;;;;;15.51;59.21;99162.09;3144854;28;20053;-73
2022/04/24 00:26:08;;;;;;;20.80;6.95;;;;;;;15.51;59.54;99163.91;3143791;28;20056;-73
2022/04/24 00:27:39;;;;;;;16.15;6.03;;;;;;;15.46;59.17;99159.81;3143487;28;20044;-73
2022/04/24 00:29:11;;;;;;;19.95;5.03;;;;;;;15.42;58.69;99157.53;3145902;28;20059;-73
2022/04/24 00:30:42;;;;;;;18.85;4.40;;;;;;;15.37;58.06;99157.88;3140630;28;20100;-73
2022/04/24 00:32:14;;;;;;;9.98;4.43;;;;;;;15.37;57.58;99157.06;3144302;28;20113;-73
2022/04/24 00:33:46;;;;;;;10.25;3.13;;;;;;;15.32;57.43;99169.66;3143801;28;20126;-73
2022/04/24 00:35:18;;;;;;;5.78;2.97;;;;;;;15.27;56.84;99156.09;3140201;28;20437;-73
2022/04/24 00:36:51;;;;;;;8.68;2.65;;;;;;;15.25;56.46;99164.88;3140847;28;20106;-73
2022/04/24 00:38:23;;;;;;;10.95;2.40;;;;;;;15.23;56.34;99160.69;3139624;28;20041;-73
2022/04/24 00:39:54;;;;;;;14.55;2.55;;;;;;;15.20;55.71;99160.94;3140086;28;20437;-73
2022/04/24 00:41:26;;;;;;;7.40;1.83;;;;;;;15.24;55.44;99167.63;3146367;28;20060;-73
2022/04/24 00:42:58;;;;;;;6.70;2.28;;;;;;;15.21;55.26;99160.81;3142829;28;20078;-73
2022/04/24 00:44:33;;;;;;;10.63;2.38;;;;;;;15.27;55.28;99172.66;3146013;28;20063;-73
2022/04/24 00:46:13;;;;;;;7.75;2.10;;;;;;;15.28;55.02;99166.44;3146162;28;20108;-72
2022/04/24 00:47:45;;;;;;;5.00;1.88;;;;;;;15.29;55.01;99162.84;3146040;28;20135;-73
2022/04/24 00:49:18;;;;;;;6.55;1.85;;;;;;;15.29;55.28;99162.84;3146135;28;20483;-73
2022/04/24 00:50:49;;;;;;;8.95;2.15;;;;;;;15.35;54.97;99172.06;3141275;28;20106;-73
2022/04/24 00:52:23;;;;;;;14.80;1.98;;;;;;;15.36;54.81;99168.50;3146122;28;20491;-73
2022/04/24 00:53:55;;;;;;;9.93;2.42;;;;;;;15.40;54.81;99172.56;3144236;28;20045;-73
2022/04/24 00:55:28;;;;;;;6.68;1.80;;;;;;;15.41;54.50;99176.84;3146119;28;20590;-73
2022/04/24 00:57:00;;;;;;;9.02;1.80;;;;;;;15.41;54.58;99168.97;3146752;28;20052;-73
2022/04/24 00:58:32;;;;;;;11.00;2.60;;;;;;;15.41;54.38;99176.84;3140905;28;20059;-73
2022/04/24 01:00:05;;;;;;;6.10;1.88;;;;;;;15.24;54.43;99155.34;3137787;28;20045;-73
2022/04/24 01:01:38;;;;;;;7.80;2.42;;;;;;;15.39;54.51;99173.53;3145081;28;20466;-73
2022/04/24 01:03:10;;;;;;;11.98;1.92;;;;;;;15.40;54.34;99173.38;3143405;28;20506;-73
2022/04/24 01:04:42;;;;;;;10.00;2.13;;;;;;;15.39;54.61;99171.72;3139168;28;20779;-72
2022/04/24 01:06:12;;;;;;;6.00;2.00;;;;;;;15.40;54.42;99183.06;3135522;28;20065;-73
2022/04/24 01:07:46;;;;;;;6.18;1.80;;;;;;;15.37;54.14;99173.63;3145633;28;20063;-73
2022/04/24 01:09:19;;;;;;;7.47;1.80;;;;;;;15.38;54.22;99174.44;3145827;28;20457;-73
2022/04/24 01:10:50;;;;;;;9.40;1.90;;;;;;;15.35;54.39;99174.69;3145945;28;20102;-73
2022/04/24 01:12:22;;;;;;;7.13;2.10;;;;;;;15.33;54.42;99173.97;3145946;28;20517;-73
2022/04/24 01:13:53;;;;;;;7.30;2.70;;;;;;;15.31;54.84;99181.13;3146189;28;20044;-73
2022/04/24 01:15:25;;;;;;;9.50;2.78;;;;;;;15.27;54.68;99177.91;3145529;28;20052;-72
2022/04/24 01:16:58;;;;;;;19.85;2.75;;;;;;;15.25;55.04;99182.41;3146234;28;20052;-73
2022/04/24 01:18:32;;;;;;;8.80;2.67;;;;;;;15.20;55.13;99179.28;3146136;28;20052;-72
2022/04/24 01:20:04;;;;;;;6.75;2.15;;;;;;;15.14;55.31;99172.69;3145443;28;20056;-73
2022/04/24 01:21:39;;;;;;;11.50;2.45;;;;;;;15.13;55.30;99172.84;3145826;28;20056;-72
2022/04/24 01:23:09;;;;;;;6.22;2.20;;;;;;;15.08;55.73;99165.28;3145268;28;20048;-72
2022/04/24 01:24:41;;;;;;;11.10;2.72;;;;;;;15.11;56.03;99178.19;3145391;28;20059;-72
2022/04/24 01:26:13;;;;;;;10.50;2.40;;;;;;;15.07;56.08;99171.50;3146068;28;20074;-72
2022/04/24 01:27:45;;;;;;;10.88;2.75;;;;;;;15.09;56.24;99187.13;3145102;28;20087;-72
2022/04/24 01:29:18;;;;;;;7.57;2.45;;;;;;;15.07;55.94;99179.38;3145414;28;20097;-72
2022/04/24 01:30:50;;;;;;;9.40;2.53;;;;;;;15.07;56.30;99184.59;3145433;28;20044;-72
2022/04/24 01:32:21;;;;;;;7.25;2.72;;;;;;;15.07;56.36;99183.78;3145458;28;20114;-72
2022/04/24 01:33:53;;;;;;;12.48;2.83;;;;;;;15.07;56.74;99184.59;3145880;28;20563;-72
2022/04/24 01:35:25;;;;;;;10.30;2.70;;;;;;;15.06;56.77;99187.34;3143259;28;20052;-72
2022/04/24 01:36:58;;;;;;;11.77;3.00;;;;;;;15.03;56.83;99185.78;3145617;28;20129;-72
2022/04/24 01:38:30;;;;;;;9.63;2.65;;;;;;;14.93;56.73;99172.50;3145846;28;20048;-72
2022/04/24 01:40:02;;;;;;;7.65;3.10;;;;;;;15.04;56.71;99192.69;3145400;28;20052;-73
2022/04/24 01:41:34;;;;;;;10.05;2.50;;;;;;;15.03;56.70;99188.41;3145822;28;20671;-73
2022/04/24 01:43:07;;;;;;;7.80;2.70;;;;;;;15.06;56.84;99188.19;3145240;28;20123;-73
2022/04/24 01:44:39;;;;;;;10.32;3.03;;;;;;;15.09;56.88;99189.75;3145579;28;20057;-72
2022/04/24 01:46:11;;;;;;;9.80;2.83;;;;;;;15.05;56.49;99185.66;3145084;28;20484;-72
2022/04/24 01:47:43;;;;;;;10.75;3.55;;;;;;;15.10;56.69;99194.03;3145624;28;20049;-72
2022/04/24 01:49:14;;;;;;;13.90;3.00;;;;;;;15.11;56.92;99191.28;3144964;28;20041;-72
2022/04/24 01:50:46;;;;;;;7.18;2.63;;;;;;;15.09;56.63;99189.75;3145657;28;20060;-72
2022/04/24 01:52:19;;;;;;;10.13;2.85;;;;;;;15.09;56.75;99195.84;3145386;28;20087;-72
2022/04/24 01:53:51;;;;;;;10.63;2.60;;;;;;;15.10;56.83;99199.28;3145572;28;20106;-72
2022/04/24 01:55:23;;;;;;;8.85;2.83;;;;;;;15.06;57.28;99197.84;3141739;28;20053;-72
2022/04/24 01:56:55;;;;;;;7.55;2.67;;;;;;;15.00;57.17;99188.66;3132239;28;20041;-72
2022/04/24 01:58:28;;;;;;;12.63;3.55;;;;;;;15.03;57.15;99198.91;3141012;28;20387;-72
2022/04/24 01:59:59;;;;;;;8.10;2.50;;;;;;;14.93;57.49;99184.78;3133925;28;20072;-73
2022/04/24 02:01:31;;;;;;;8.63;3.17;;;;;;;14.96;57.80;99205.53;3144946;28;20106;-72
2022/04/24 02:03:03;;;;;;;10.02;3.05;;;;;;;14.92;58.04;99206.72;3138824;28;20382;-73
2022/04/24 02:04:35;;;;;;;10.85;2.90;;;;;;;14.76;57.98;99184.22;3145707;28;20110;-72
2022/04/24 02:06:07;;;;;;;9.35;2.97;;;;;;;14.88;58.25;99208.72;3144933;28;20055;-72
2022/04/24 02:07:40;;;;;;;10.07;3.05;;;;;;;14.87;58.14;99198.34;3145046;28;20052;-72
2022/04/24 02:09:12;;;;;;;8.52;3.00;;;;;;;14.89;58.36;99207.75;3145118;28;20103;-72
2022/04/24 02:10:45;;;;;;;11.77;3.30;;;;;;;14.89;58.16;99201.69;3145109;28;20441;-72
2022/04/24 02:12:16;;;;;;;6.85;2.80;;;;;;;14.85;58.10;99195.84;3145303;28;20058;-72
2022/04/24 02:13:48;;;;;;;10.23;2.90;;;;;;;14.88;58.23;99200.00;3138285;28;20591;-72
2022/04/24 02:15:19;;;;;;;9.70;2.67;;;;;;;14.87;58.23;99201.78;3135806;28;20445;-72
2022/04/24 02:16:51;;;;;;;11.27;2.95;;;;;;;14.86;58.45;99202.75;3145325;28;20049;-72
2022/04/24 02:18:23;;;;;;;7.90;2.90;;;;;;;14.81;58.56;99204.03;3144248;28;20512;-73
2022/04/24 02:19:55;;;;;;;11.68;3.28;;;;;;;14.76;58.83;99196.50;3140383;28;20040;-72
2022/04/24 02:21:28;;;;;;;14.15;3.78;;;;;;;14.79;58.99;99204.16;3145328;28;20692;-72
2022/04/24 02:23:02;;;;;;;8.15;3.00;;;;;;;14.79;58.86;99207.59;3144751;28;20044;-72
2022/04/24 02:24:34;;;;;;;10.95;3.38;;;;;;;14.77;59.02;99212.09;3145124;28;20437;-72
2022/04/24 02:26:06;;;;;;;10.15;3.20;;;;;;;14.75;59.04;99211.38;3145271;28;20072;-72
2022/04/24 02:27:37;;;;;;;11.82;2.63;;;;;;;14.76;59.12;99209.59;3139624;28;20074;-72
2022/04/24 02:29:09;;;;;;;8.73;3.28;;;;;;;14.74;59.33;99217.56;3140807;28;20052;-72
2022/04/24 02:30:41;;;;;;;7.30;2.55;;;;;;;14.74;59.47;99222.81;3137990;28;20105;-72
2022/04/24 02:32:13;;;;;;;11.25;4.40;;;;;;;14.72;59.34;99229.09;3144914;28;20976;-72
2022/04/24 02:33:45;;;;;;;9.43;3.15;;;;;;;14.66;59.50;99213.81;3145314;28;20049;-72
2022/04/24 02:35:17;;;;;;;8.30;2.88;;;;;;;14.62;59.91;99220.25;3145020;28;20053;-72
2022/04/24 02:36:49;;;;;;;8.25;2.78;;;;;;;14.65;59.86;99228.72;3144603;28;20048;-72
2022/04/24 02:38:22;;;;;;;10.10;3.75;;;;;;;14.62;59.64;99220.25;3138691;28;20433;-72
2022/04/24 02:39:54;;;;;;;11.20;3.78;;;;;;;14.61;60.11;99224.66;3145125;28;20045;-72
2022/04/24 02:41:27;;;;;;;8.00;3.20;;;;;;;14.58;60.18;99227.44;3145285;28;20052;-72
2022/04/24 02:42:59;;;;;;;6.88;2.90;;;;;;;14.55;60.20;99225.06;3144525;28;20135;-72
2022/04/24 02:44:31;;;;;;;10.60;3.15;;;;;;;14.53;60.08;99232.22;3144866;28;20052;-72
2022/04/24 02:46:02;;;;;;;6.93;3.40;;;;;;;14.49;60.49;99238.56;3144964;28;20492;-72
2022/04/24 02:47:34;;;;;;;8.82;2.92;;;;;;;14.44;60.35;99233.66;3144807;28;20059;-72
2022/04/24 02:49:06;;;;;;;8.93;2.97;;;;;;;14.43;60.56;99231.97;3145039;28;20044;-72
2022/04/24 02:50:39;;;;;;;9.75;3.60;;;;;;;14.42;60.59;99237.31;3139338;28;20053;-72
2022/04/24 02:52:10;;;;;;;9.65;2.92;;;;;;;14.39;60.70;99245.41;3142131;28;20045;-72
2022/04/24 02:53:43;;;;;;;6.32;2.63;;;;;;;14.38;60.86;99236.72;3139793;28;20053;-72
2022/04/24 02:55:15;;;;;;;6.85;3.13;;;;;;;14.34;60.68;99232.59;3139977;28;20126;-72
2022/04/24 02:56:47;;;;;;;8.77;3.22;;;;;;;14.33;60.92;99234.41;3141999;28;20068;-72
2022/04/24 02:58:21;;;;;;;7.40;3.42;;;;;;;14.30;60.83;99237.22;3140125;28;20064;-72
2022/04/24 02:59:55;;;;;;;11.20;3.70;;;;;;;14.30;60.85;99237.22;3143766;28;20080;-72
2022/04/24 03:01:27;;;;;;;10.90;3.97;;;;;;;14.28;61.08;99246.97;3137120;28;20088;-72
2022/04/24 03:02:58;;;;;;;9.45;4.03;;;;;;;14.19;61.29;99242.38;3139486;28;20056;-72
2022/04/24 03:04:31;;;;;;;9.90;3.97;;;;;;;14.19;61.76;99252.84;3145372;28;20555;-72
2022/04/24 03:06:02;;;;;;;10.43;3.72;;;;;;;14.11;61.49;99247.31;3142717;28;20139;-72
2022/04/24 03:07:33;;;;;;;10.32;3.90;;;;;;;14.13;61.60;99252.44;3139785;28;20534;-72
2022/04/24 03:09:06;;;;;;;9.15;3.30;;;;;;;14.10;62.03;99261.31;3141226;28;20110;-72
2022/04/24 03:10:38;;;;;;;6.82;3.17;;;;;;;14.07;61.88;99266.78;3134841;28;20582;-72
2022/04/24 03:12:11;;;;;;;11.73;4.18;;;;;;;14.03;62.30;99263.53;3144808;28;20072;-72
2022/04/24 03:13:43;;;;;;;11.45;3.60;;;;;;;14.02;62.31;99268.84;3144188;28;20059;-73
2022/04/24 03:15:15;;;;;;;9.05;3.63;;;;;;;13.96;62.40;99264.03;3142921;28;20110;-72
2022/04/24 03:16:47;;;;;;;10.15;3.30;;;;;;;14.00;62.15;99276.00;3143101;28;20128;-72
2022/04/24 03:18:19;;;;;;;8.45;3.97;;;;;;;13.99;62.21;99272.56;3145379;28;20057;-72
2022/04/24 03:19:51;;;;;;;10.95;3.72;;;;;;;13.98;62.63;99272.63;3142069;28;20447;-72
2022/04/24 03:21:23;;;;;;;8.68;3.47;;;;;;;13.90;62.74;99267.91;3142917;28;20520;-72
2022/04/24 03:22:56;;;;;;;11.48;4.20;;;;;;;13.92;62.87;99273.88;3136394;28;20152;-72
2022/04/24 03:24:29;;;;;;;11.73;3.60;;;;;;;13.84;62.78;99270.94;3136734;28;20063;-72
2022/04/24 03:26:01;;;;;;;9.18;3.95;;;;;;;13.85;62.85;99276.09;3138944;28;20053;-72
2022/04/24 03:27:33;;;;;;;9.45;3.55;;;;;;;13.83;63.08;99277.13;3137824;28;20514;-72
2022/04/24 03:29:05;;;;;;;9.20;3.55;;;;;;;13.81;62.79;99284.22;3140899;28;20101;-72
2022/04/24 03:30:37;;;;;;;7.60;3.70;;;;;;;13.79;63.15;99281.72;3144525;28;20052;-72
2022/04/24 03:32:10;;;;;;;10.20;3.60;;;;;;;13.76;63.28;99281.09;3145062;28;20059;-72
2022/04/24 03:33:42;;;;;;;14.15;3.97;;;;;;;13.75;63.37;99287.25;3144986;28;20498;-72
2022/04/24 03:35:14;;;;;;;13.20;3.90;;;;;;;13.73;63.13;99292.59;3144624;28;20045;-72
2022/04/24 03:36:46;;;;;;;8.38;4.10;;;;;;;13.71;63.40;99294.47;3144504;28;20059;-72
2022/04/24 03:38:18;;;;;;;12.65;3.72;;;;;;;13.66;63.45;99299.16;3144822;28;20068;-72
2022/04/24 03:39:51;;;;;;;7.75;3.92;;;;;;;13.64;63.82;99295.84;3144919;28;20041;-72
2022/04/24 03:41:23;;;;;;;12.15;4.50;;;;;;;13.59;63.71;99293.50;3144770;28;20056;-72
2022/04/24 03:42:55;;;;;;;12.73;4.35;;;;;;;13.56;63.95;99298.94;3143990;28;20535;-72
2022/04/24 03:44:27;;;;;;;7.07;3.90;;;;;;;13.48;64.10;99285.53;3144799;28;20049;-72
2022/04/24 03:45:58;;;;;;;7.95;4.03;;;;;;;13.55;63.78;99297.28;3144567;28;20053;-72
2022/04/24 03:47:30;;;;;;;10.82;4.68;;;;;;;13.50;63.99;99288.06;3139400;28;20558;-72
2022/04/24 03:49:01;;;;;;;12.05;4.93;;;;;;;13.54;64.05;99300.81;3143382;28;20106;-72
2022/04/24 03:50:33;;;;;;;14.35;3.83;;;;;;;13.55;64.11;99306.91;3146669;28;20044;-72
2022/04/24 03:52:05;;;;;;;8.25;3.88;;;;;;;13.56;63.89;99311.19;3146560;28;20492;-72
2022/04/24 03:53:37;;;;;;;14.75;4.63;;;;;;;13.56;63.90;99308.56;3142829;28;20081;-72
2022/04/24 03:55:11;;;;;;;15.75;4.50;;;;;;;13.51;63.90;99300.19;3144254;28;20100;-72
2022/04/24 03:56:43;;;;;;;16.75;5.10;;;;;;;13.49;64.13;99299.44;3146981;28;20056;-72
2022/04/24 03:58:14;;;;;;;17.98;5.85;;;;;;;13.55;63.99;99312.97;3146778;28;20461;-72
2022/04/24 03:59:46;;;;;;;16.42;6.30;;;;;;;13.52;63.90;99313.19;3146976;28;20066;-72
2022/04/24 04:01:18;;;;;;;11.07;5.25;;;;;;;13.53;64.12;99312.22;3143874;28;20063;-72
2022/04/24 04:02:50;;;;;;;16.55;5.13;;;;;;;13.50;64.01;99309.81;3146743;28;20059;-72
2022/04/24 04:04:22;;;;;;;13.77;5.20;;;;;;;13.56;64.11;99321.66;3147000;28;20052;-72
2022/04/24 04:05:54;;;;;;;17.85;5.40;;;;;;;13.56;63.86;99326.88;3146895;28;20605;-72
2022/04/24 04:07:25;;;;;;;16.50;5.57;;;;;;;13.53;64.38;99319.25;3140250;28;20432;-72
2022/04/24 04:08:57;;;;;;;12.52;5.20;;;;;;;13.55;63.99;99325.22;3142442;28;20049;-72
2022/04/24 04:10:31;;;;;;;12.48;5.50;;;;;;;13.56;64.34;99316.41;3145812;28;20048;-72
2022/04/24 04:12:02;;;;;;;;;;;;;;;13.55;64.22;99330.44;3147059;28;20052;-72
2022/04/24 04:13:34;;;;;;;11.43;4.07;;;;;;;13.54;63.90;99331.38;3137219;28;19920;-72
2022/04/24 04:15:08;;;;;;;12.05;5.07;;;;;;;13.54;64.34;99323.53;3142793;28;20056;-72
2022/04/24 04:16:40;;;;;;;16.13;5.18;;;;;;;13.55;64.37;99328.66;3145352;28;20551;-72
2022/04/24 04:18:12;;;;;;;14.02;4.72;;;;;;;13.54;64.17;99336.59;3134387;28;20053;-73
2022/04/24 04:19:44;;;;;;;10.95;5.22;;;;;;;13.55;64.08;99333.91;3137733;28;20052;-72
2022/04/24 04:21:15;;;;;;;15.32;5.10;;;;;;;13.56;64.62;99337.34;3146825;28;20048;-72
2022/04/24 04:22:51;;;;;;;19.27;5.63;;;;;;;13.52;64.76;99328.03;3146624;28;20106;-73
2022/04/24 04:24:23;;;;;;;15.90;4.85;;;;;;;13.58;64.48;99340.72;3145398;28;20494;-73
2022/04/24 04:25:56;;;;;;;10.43;4.93;;;;;;;13.59;64.53;99340.59;3144161;28;20048;-73
2022/04/24 04:27:28;;;;;;;12.07;4.82;;;;;;;13.60;64.91;99339.66;3145945;28;20422;-73
2022/04/24 04:29:00;;;;;;;12.93;4.90;;;;;;;13.61;64.93;99348.38;3146461;28;20456;-72
2022/04/24 04:30:31;;;;;;;10.18;4.50;;;;;;;13.62;64.57;99344.81;3145896;28;20044;-73
2022/04/24 04:32:04;;;;;;;10.13;4.97;;;;;;;13.62;64.55;99342.19;3143895;28;20044;-73
2022/04/24 04:33:36;;;;;;;11.20;4.03;;;;;;;13.62;65.01;99348.25;3146608;28;20052;-73
2022/04/24 04:35:09;;;;;;;14.10;5.03;;;;;;;13.61;64.78;99343.97;3141948;28;20084;-73
2022/04/24 04:36:41;;;;;;;10.90;5.40;;;;;;;13.62;64.81;99347.41;3146589;28;20486;-73
2022/04/24 04:38:14;;;;;;;13.50;5.05;;;;;;;13.64;64.77;99350.78;3146232;28;20053;-72
2022/04/24 04:39:46;;;;;;;15.73;5.53;;;;;;;13.64;65.23;99348.16;3146543;28;20048;-73
2022/04/24 04:41:19;;;;;;;18.13;5.90;;;;;;;13.62;65.44;99350.88;3141459;28;20495;-73
2022/04/24 04:42:51;;;;;;;10.88;5.68;;;;;;;13.60;65.67;99350.13;3146372;28;20114;-73
2022/04/24 04:44:23;;;;;;;19.60;5.45;;;;;;;13.52;65.77;99335.88;3146352;28;20110;-73
2022/04/24 04:45:55;;;;;;;16.63;6.05;;;;;;;13.60;65.45;99354.53;3138711;28;20480;-73
2022/04/24 04:47:27;;;;;;;24.30;6.45;;;;;;;13.61;65.32;99350.97;3143074;28;20465;-73
2022/04/24 04:48:59;;;;;;;12.63;5.45;;;;;;;13.63;65.62;99352.53;3141978;28;20044;-73
2022/04/24 04:50:31;;;;;;;14.70;6.13;;;;;;;13.62;65.51;99355.28;3139459;28;20170;-73
2022/04/24 04:52:03;;;;;;;15.82;5.60;;;;;;;13.61;65.48;99353.59;3146148;28;20136;-73
2022/04/24 04:53:35;;;;;;;20.20;6.70;;;;;;;13.62;65.52;99353.47;3146269;28;20049;-73
2022/04/24 04:55:08;;;;;;;16.40;5.60;;;;;;;13.61;65.48;99353.59;3146228;28;20056;-73
2022/04/24 04:56:41;;;;;;;13.10;4.70;;;;;;;13.63;65.48;99354.31;3143053;28;20525;-73
2022/04/24 04:58:13;;;;;;;15.40;4.97;;;;;;;13.63;65.11;99363.00;3146076;28;20625;-72
2022/04/24 04:59:45;;;;;;;13.43;4.82;;;;;;;13.61;65.46;99364.06;3144993;28;20052;-73
2022/04/24 05:01:17;;;;;;;20.30;5.07;;;;;;;13.63;65.25;99362.16;3140963;28;20135;-73
2022/04/24 05:02:48;;;;;;;13.57;5.03;;;;;;;13.63;65.18;99356.94;3141276;28;20102;-73
2022/04/24 05:04:20;;;;;;;16.23;5.25;;;;;;;13.66;65.00;99356.72;3143872;28;20437;-73
2022/04/24 05:05:52;;;;;;;10.85;4.28;;;;;;;13.67;65.09;99355.81;3139629;28;20053;-73
2022/04/24 05:07:24;;;;;;;16.60;5.03;;;;;;;13.71;64.95;99352.03;3145954;28;20533;-73
2022/04/24 05:08:56;;;;;;;15.63;5.75;;;;;;;13.76;64.59;99352.59;3142961;28;20055;-73
2022/04/24 05:10:27;;;;;;;19.20;5.15;;;;;;;13.80;64.33;99351.44;3146346;28;20052;-73
2022/04/24 05:12:01;;;;;;;22.65;5.10;;;;;;;13.81;64.35;99350.53;3144142;28;20048;-73
2022/04/24 05:13:32;;;;;;;;;;;;;;;13.88;64.03;99358.81;3138340;28;20087;-73
2022/04/24 05:15:06;;;;;;;17.55;4.63;;;;;;;13.88;64.00;99350.94;3144007;28;20354;-73
2022/04/24 05:16:39;;;;;;;11.85;4.22;;;;;;;13.92;63.88;99356.81;3135880;28;20045;-73
2022/04/24 05:18:10;;;;;;;15.48;4.30;;;;;;;13.75;63.72;99319.50;3136262;28;20127;-73
2022/04/24 05:19:42;;;;;;;13.93;4.65;;;;;;;14.00;63.29;99357.16;3145457;28;20114;-73
2022/04/24 05:21:16;;;;;;;14.50;5.10;;;;;;;14.02;62.86;99350.88;3145891;28;20044;-73
2022/04/24 05:22:48;;;;;;;11.88;4.55;;;;;;;14.08;63.31;99353.09;3145409;28;20549;-73
2022/04/24 05:24:20;;;;;;;9.02;4.72;;;;;;;14.17;62.79;99359.50;3146221;28;20063;-73
2022/04/24 05:25:52;;;;;;;13.45;5.25;;;;;;;14.25;62.91;99354.56;3145811;28;20057;-73
2022/04/24 05:27:26;;;;;;;14.10;4.13;;;;;;;14.33;62.60;99354.06;3145850;28;20044;-73
2022/04/24 05:28:57;;;;;;;11.82;4.20;;;;;;;14.39;61.63;99344.94;3146104;28;20057;-73
2022/04/24 05:30:30;;;;;;;10.23;4.05;;;;;;;14.30;61.38;99331.53;3145703;28;20049;-73
2022/04/24 05:32:01;;;;;;;12.52;3.95;;;;;;;14.53;60.96;99344.88;3141490;28;20052;-73
2022/04/24 05:33:33;;;;;;;10.15;3.65;;;;;;;14.61;60.66;99342.56;3140490;28;20048;-73
2022/04/24 05:35:07;;;;;;;12.70;3.80;;;;;;;14.71;60.66;99342.75;3145665;28;20048;-73
2022/04/24 05:36:39;;;;;;;10.82;3.92;;;;;;;14.88;59.87;99349.44;3145689;28;20513;-73
2022/04/24 05:38:11;;;;;;;9.45;3.15;;;;;;;15.26;58.67;99344.09;3145551;28;20049;-73
2022/04/24 05:39:42;;;;;;;9.02;3.20;;;;;;;15.85;56.35;99338.06;3146009;28;20418;-73
2022/04/24 05:41:14;;;;;;;11.45;3.25;;;;;;;15.91;55.86;99341.09;3145731;28;20059;-73
2022/04/24 05:42:50;;;;;;;9.23;3.00;;;;;;;15.85;56.13;99338.94;3145555;28;20048;-73
2022/04/24 05:44:21;;;;;;;10.30;2.78;;;;;;;15.98;55.31;99349.34;3145599;28;20075;-73
2022/04/24 05:45:53;;;;;;;8.80;2.45;;;;;;;16.05;55.06;99350.56;3145046;28;20077;-73
2022/04/24 05:47:25;;;;;;;9.73;3.35;;;;;;;16.02;54.70;99335.03;3145784;28;20044;-73
2022/04/24 05:49:00;;;;;;;10.85;3.60;;;;;;;16.09;54.51;99343.28;3140401;28;20052;-73
2022/04/24 05:50:33;;;;;;;7.72;3.05;;;;;;;16.17;54.39;99345.34;3137752;28;20134;-73
2022/04/24 05:52:05;;;;;;;9.73;3.33;;;;;;;16.24;54.60;99349.16;3139404;28;20093;-73
2022/04/24 05:53:37;;;;;;;8.85;2.80;;;;;;;16.19;54.55;99325.88;3145393;28;20063;-73
2022/04/24 05:55:10;;;;;;;11.48;3.85;;;;;;;16.37;54.41;99348.13;3145525;28;20119;-73
2022/04/24 05:56:42;;;;;;;9.80;3.30;;;;;;;16.45;54.17;99346.72;3145794;28;20122;-73
2022/04/24 05:58:15;;;;;;;11.70;3.72;;;;;;;16.52;54.43;99347.91;3145378;28;20166;-73
2022/04/24 05:59:47;;;;;;;6.55;3.45;;;;;;;16.56;54.12;99355.47;3145390;28;20078;-73
2022/04/24 06:01:19;;;;;;;10.27;3.10;;;;;;;16.61;53.78;99347.19;3145080;28;20055;-73
2022/04/24 06:02:51;;;;;;;12.30;3.30;;;;;;;16.66;53.85;99349.50;3144675;28;20052;-73
2022/04/24 06:04:22;;;;;;;14.45;3.22;;;;;;;16.67;53.54;99340.63;3139026;28;20135;-73
2022/04/24 06:05:54;;;;;;;9.10;3.28;;;;;;;16.66;53.65;99331.91;3145589;28;20052;-73
2022/04/24 06:07:26;;;;;;;6.63;2.75;;;;;;;16.81;53.37;99354.41;3145193;28;20501;-73
2022/04/24 06:08:58;;;;;;;8.70;2.80;;;;;;;16.88;53.25;99354.75;3138654;28;20049;-73
2022/04/24 06:10:30;;;;;;;9.10;3.78;;;;;;;16.92;53.13;99353.59;3145017;28;20459;-73
2022/04/24 06:12:02;;;;;;;7.40;2.90;;;;;;;16.99;52.91;99352.13;3145253;28;20128;-73
2022/04/24 06:13:35;;;;;;;10.50;2.65;;;;;;;17.03;52.78;99348.28;3145174;28;20071;-73
2022/04/24 06:15:13;;;;;;;11.27;3.35;;;;;;;17.11;52.61;99352.13;3145389;28;20048;-73
2022/04/24 06:16:45;;;;;;;9.45;2.80;;;;;;;17.20;52.49;99352.22;3142762;28;20517;-73
2022/04/24 06:18:17;;;;;;;9.88;3.60;;;;;;;17.29;52.44;99345.38;3145890;28;20053;-73
2022/04/24 06:19:48;;;;;;;9.38;3.05;;;;;;;17.32;52.17;99334.59;3145206;28;20044;-73
2022/04/24 06:21:20;;;;;;;10.80;2.72;;;;;;;17.40;51.75;99345.38;3145138;28;20120;-73
2022/04/24 06:22:53;;;;;;;8.05;2.67;;;;;;;17.42;51.46;99353.97;3145247;28;20049;-74
2022/04/24 06:24:25;;;;;;;7.60;2.95;;;;;;;17.48;51.57;99353.47;3144964;28;20441;-73
2022/04/24 06:25:58;;;;;;;6.38;2.80;;;;;;;17.56;51.40;99354.66;3145366;28;20052;-72
2022/04/24 06:27:30;;;;;;;19.00;2.72;;;;;;;17.60;51.25;99340.25;3144994;28;20510;-73
2022/04/24 06:29:03;;;;;;;7.47;2.42;;;;;;;17.68;51.33;99348.38;3145585;28;20052;-72
2022/04/24 06:30:40;;;;;;;10.60;3.40;;;;;;;17.65;51.24;99332.81;3144392;28;20128;-73
2022/04/24 06:32:12;;;;;;;10.55;3.03;;;;;;;17.82;50.95;99345.47;3143122;28;20063;-72
2022/04/24 06:33:43;;;;;;;7.85;2.80;;;;;;;17.91;50.77;99347.34;3138938;28;20154;-73
2022/04/24 06:35:17;;;;;;;6.50;2.35;;;;;;;18.01;50.77;99343.94;3145639;28;20048;-73
2022/04/24 06:36:48;;;;;;;10.35;1.95;;;;;;;18.11;50.54;99344.88;3144896;28;20068;-73
2022/04/24 06:38:22;;;;;;;13.45;2.80;;;;;;;18.19;50.33;99347.72;3145087;28;20109;-73
2022/04/24 06:39:53;;;;;;;9.02;2.95;;;;;;;18.28;50.11;99344.28;3145223;28;20048;-73
2022/04/24 06:41:26;;;;;;;10.45;2.88;;;;;;;18.37;49.61;99351.41;3137085;28;20473;-73
2022/04/24 06:42:59;;;;;;;8.13;2.78;;;;;;;18.24;49.39;99316.50;3133187;28;20052;-73
2022/04/24 06:44:33;;;;;;;9.23;2.60;;;;;;;18.51;49.20;99341.50;3129684;28;20103;-73
2022/04/24 06:46:04;;;;;;;7.28;2.38;;;;;;;18.59;49.10;99341.66;3141481;28;20040;-73
2022/04/24 06:47:36;;;;;;;7.85;2.42;;;;;;;18.60;48.85;99343.34;3145247;28;20109;-74
2022/04/24 06:49:08;;;;;;;7.70;2.28;;;;;;;18.64;48.92;99342.13;3136604;28;20061;-74
2022/04/24 06:50:41;;;;;;;11.43;2.25;;;;;;;18.71;48.97;99343.25;3144923;28;20484;-73
2022/04/24 06:52:13;;;;;;;10.23;2.78;;;;;;;18.80;49.02;99347.75;3145237;28;20071;-73
2022/04/24 06:53:45;;;;;;;9.75;3.22;;;;;;;18.85;49.05;99342.09;3139021;28;20048;-73
2022/04/24 06:55:15;;;;;;;11.05;2.80;;;;;;;18.94;49.25;99345.75;3143922;28;20048;-73
2022/04/24 06:56:47;;;;;;;8.52;2.97;;;;;;;19.03;49.02;99340.50;3140939;28;20109;-73
2022/04/24 06:58:20;;;;;;;5.57;2.17;;;;;;;19.17;48.98;99338.47;3145578;28;20048;-73
2022/04/24 06:59:53;;;;;;;7.53;2.85;;;;;;;19.27;48.97;99340.13;3143959;28;20052;-74
2022/04/24 07:01:26;;;;;;;6.82;2.60;;;;;;;19.36;48.90;99327.09;3144999;28;20068;-73
2022/04/24 07:02:58;;;;;;;8.65;2.55;;;;;;;19.50;48.64;99334.63;3144019;28;20056;-73
2022/04/24 07:04:30;;;;;;;11.15;3.58;;;;;;;19.59;48.70;99330.31;3145326;28;20412;-74
2022/04/24 07:06:02;;;;;;;8.95;2.50;;;;;;;19.65;48.41;99324.50;3143610;28;20102;-73
2022/04/24 07:07:34;;;;;;;14.95;3.28;;;;;;;19.72;48.41;99323.78;3140708;28;20106;-73
2022/04/24 07:09:06;;;;;;;8.02;3.05;;;;;;;19.83;48.54;99324.63;3142278;28;20541;-73
2022/04/24 07:10:38;;;;;;;8.85;2.78;;;;;;;19.93;48.03;99328.94;3133689;28;20052;-73